sensor_id;sensor_type;location;lat;lon;timestamp;pressure;altitude;pressure_sealevel;temperature;humidity
18819;BME280;9537;45.594;9.294;2023-06-22T00:00:34;99945.94;;;24.81;66.20
18819;BME280;9537;45.594;9.294;2023-06-22T00:01:35;99953.00;;;24.82;66.43
18819;BME280;9537;45.594;9.294;2023-06-22T00:02:37;99953.00;;;24.82;66.37
18819;BME280;9537;45.594;9.294;2023-06-22T00:03:37;99951.09;;;24.82;66.58
18819;BME280;9537;45.594;9.294;2023-06-22T00:04:39;99949.22;;;24.83;66.03
18819;BME280;9537;45.594;9.294;2023-06-22T00:05:40;99955.19;;;24.85;65.87
18819;BME280;9537;45.594;9.294;2023-06-22T00:06:42;99945.44;;;24.84;66.17
18819;BME280;9537;45.594;9.294;2023-06-22T00:07:42;99951.97;;;24.88;66.02
18819;BME280;9537;45.594;9.294;2023-06-22T00:08:44;99950.88;;;24.89;65.73
18819;BME280;9537;45.594;9.294;2023-06-22T00:09:46;99939.25;;;24.88;66.16
18819;BME280;9537;45.594;9.294;2023-06-22T00:10:48;99947.06;;;24.85;66.71
18819;BME280;9537;45.594;9.294;2023-06-22T00:11:49;99940.59;;;24.86;66.29
18819;BME280;9537;45.594;9.294;2023-06-22T00:12:50;99935.47;;;24.84;66.25
18819;BME280;9537;45.594;9.294;2023-06-22T00:13:51;99934.38;;;24.85;66.33
18819;BME280;9537;45.594;9.294;2023-06-22T00:14:53;99925.47;;;24.85;66.44
18819;BME280;9537;45.594;9.294;2023-06-22T00:15:53;99940.88;;;24.84;66.31
18819;BME280;9537;45.594;9.294;2023-06-22T00:16:55;99932.25;;;24.87;66.63
18819;BME280;9537;45.594;9.294;2023-06-22T00:17:57;99933.03;;;24.88;66.38
18819;BME280;9537;45.594;9.294;2023-06-22T00:19:00;99939.00;;;24.90;66.40
18819;BME280;9537;45.594;9.294;2023-06-22T00:20:01;99943.28;;;24.86;66.42
18819;BME280;9537;45.594;9.294;2023-06-22T00:21:07;99942.44;;;24.80;67.07
18819;BME280;9537;45.594;9.294;2023-06-22T00:22:09;99936.50;;;24.78;66.92
18819;BME280;9537;45.594;9.294;2023-06-22T00:23:09;99940.25;;;24.77;67.39
18819;BME280;9537;45.594;9.294;2023-06-22T00:24:11;99936.22;;;24.80;67.19
18819;BME280;9537;45.594;9.294;2023-06-22T00:25:13;99942.19;;;24.82;67.12
18819;BME280;9537;45.594;9.294;2023-06-22T00:26:15;99944.34;;;24.80;67.04
18819;BME280;9537;45.594;9.294;2023-06-22T00:27:17;99947.03;;;24.80;67.08
18819;BME280;9537;45.594;9.294;2023-06-22T00:28:19;99941.91;;;24.78;66.92
18819;BME280;9537;45.594;9.294;2023-06-22T00:29:20;99935.13;;;24.76;67.03
18819;BME280;9537;45.594;9.294;2023-06-22T00:30:22;99940.25;;;24.77;66.53
18819;BME280;9537;45.594;9.294;2023-06-22T00:31:23;99935.38;;;24.74;66.87
18819;BME280;9537;45.594;9.294;2023-06-22T00:32:24;99934.81;;;24.72;67.22
18819;BME280;9537;45.594;9.294;2023-06-22T00:33:25;99935.34;;;24.69;66.95
18819;BME280;9537;45.594;9.294;2023-06-22T00:34:28;99934.81;;;24.67;66.94
18819;BME280;9537;45.594;9.294;2023-06-22T00:35:29;99932.34;;;24.65;67.18
18819;BME280;9537;45.594;9.294;2023-06-22T00:36:30;99932.63;;;24.64;67.19
18819;BME280;9537;45.594;9.294;2023-06-22T00:37:31;99927.22;;;24.64;66.62
18819;BME280;9537;45.594;9.294;2023-06-22T00:38:33;99932.00;;;24.57;66.76
18819;BME280;9537;45.594;9.294;2023-06-22T00:39:33;99934.44;;;24.53;67.43
18819;BME280;9537;45.594;9.294;2023-06-22T00:40:37;99936.00;;;24.49;67.55
18819;BME280;9537;45.594;9.294;2023-06-22T00:41:37;99930.59;;;24.49;67.67
18819;BME280;9537;45.594;9.294;2023-06-22T00:42:39;99929.53;;;24.50;67.75
18819;BME280;9537;45.594;9.294;2023-06-22T00:43:40;99934.94;;;24.50;67.98
18819;BME280;9537;45.594;9.294;2023-06-22T00:44:42;99935.19;;;24.48;67.94
18819;BME280;9537;45.594;9.294;2023-06-22T00:45:43;99927.59;;;24.45;68.77
18819;BME280;9537;45.594;9.294;2023-06-22T00:46:45;99938.69;;;24.44;69.36
18819;BME280;9537;45.594;9.294;2023-06-22T00:47:45;99931.88;;;24.41;69.54
18819;BME280;9537;45.594;9.294;2023-06-22T00:48:47;99928.34;;;24.41;69.40
18819;BME280;9537;45.594;9.294;2023-06-22T00:49:49;99935.63;;;24.40;69.60
18819;BME280;9537;45.594;9.294;2023-06-22T00:50:52;99932.44;;;24.43;69.02
18819;BME280;9537;45.594;9.294;2023-06-22T00:51:57;99929.75;;;24.43;69.14
18819;BME280;9537;45.594;9.294;2023-06-22T00:52:59;99926.00;;;24.44;68.42
18819;BME280;9537;45.594;9.294;2023-06-22T00:54:01;99921.97;;;24.47;68.57
18819;BME280;9537;45.594;9.294;2023-06-22T00:55:02;99923.56;;;24.48;68.12
18819;BME280;9537;45.594;9.294;2023-06-22T00:56:06;99923.34;;;24.49;68.20
18819;BME280;9537;45.594;9.294;2023-06-22T00:57:09;99923.34;;;24.49;67.85
18819;BME280;9537;45.594;9.294;2023-06-22T00:58:12;99927.66;;;24.50;67.88
18819;BME280;9537;45.594;9.294;2023-06-22T00:59:13;99927.13;;;24.54;67.80
18819;BME280;9537;45.594;9.294;2023-06-22T01:00:18;99928.41;;;24.46;67.81
18819;BME280;9537;45.594;9.294;2023-06-22T01:01:20;99929.50;;;24.45;67.97
18819;BME280;9537;45.594;9.294;2023-06-22T01:02:23;99926.47;;;24.41;67.84
18819;BME280;9537;45.594;9.294;2023-06-22T01:03:24;99931.31;;;24.39;68.40
18819;BME280;9537;45.594;9.294;2023-06-22T01:04:35;99930.75;;;24.37;68.20
18819;BME280;9537;45.594;9.294;2023-06-22T01:05:36;99929.94;;;24.37;68.50
18819;BME280;9537;45.594;9.294;2023-06-22T01:06:43;99938.09;;;24.42;68.06
18819;BME280;9537;45.594;9.294;2023-06-22T01:08:01;99934.56;;;24.41;68.31
18819;BME280;9537;45.594;9.294;2023-06-22T01:09:12;99936.41;;;24.36;69.00
18819;BME280;9537;45.594;9.294;2023-06-22T01:10:21;99927.50;;;24.35;69.38
18819;BME280;9537;45.594;9.294;2023-06-22T01:11:32;99936.66;;;24.34;69.42
18819;BME280;9537;45.594;9.294;2023-06-22T01:12:40;99930.44;;;24.34;69.28
18819;BME280;9537;45.594;9.294;2023-06-22T01:13:47;99929.63;;;24.33;69.59
18819;BME280;9537;45.594;9.294;2023-06-22T01:14:55;99939.91;;;24.36;68.89
18819;BME280;9537;45.594;9.294;2023-06-22T01:16:03;99940.16;;;24.35;69.14
18819;BME280;9537;45.594;9.294;2023-06-22T01:17:07;99943.38;;;24.32;69.68
18819;BME280;9537;45.594;9.294;2023-06-22T01:18:11;99935.56;;;24.30;69.32
18819;BME280;9537;45.594;9.294;2023-06-22T01:19:29;99946.06;;;24.32;69.16
18819;BME280;9537;45.594;9.294;2023-06-22T01:20:36;99944.69;;;24.29;69.27
18819;BME280;9537;45.594;9.294;2023-06-22T01:21:37;99946.59;;;24.28;69.46
18819;BME280;9537;45.594;9.294;2023-06-22T01:22:50;99942.28;;;24.27;69.73
18819;BME280;9537;45.594;9.294;2023-06-22T01:24:05;99944.41;;;24.25;69.67
18819;BME280;9537;45.594;9.294;2023-06-22T01:25:19;99951.94;;;24.23;69.76
18819;BME280;9537;45.594;9.294;2023-06-22T01:26:25;99943.84;;;24.23;69.55
18819;BME280;9537;45.594;9.294;2023-06-22T01:27:40;99941.97;;;24.24;69.53
18819;BME280;9537;45.594;9.294;2023-06-22T01:28:50;99934.69;;;24.24;69.56
18819;BME280;9537;45.594;9.294;2023-06-22T01:29:55;99939.00;;;24.25;69.25
18819;BME280;9537;45.594;9.294;2023-06-22T01:31:00;99934.41;;;24.26;69.00
18819;BME280;9537;45.594;9.294;2023-06-22T01:32:06;99934.19;;;24.27;69.23
18819;BME280;9537;45.594;9.294;2023-06-22T01:33:10;99935.50;;;24.25;69.01
18819;BME280;9537;45.594;9.294;2023-06-22T01:34:13;99941.16;;;24.23;69.43
18819;BME280;9537;45.594;9.294;2023-06-22T01:35:15;99946.00;;;24.21;69.51
18819;BME280;9537;45.594;9.294;2023-06-22T01:36:18;99944.34;;;24.20;69.52
18819;BME280;9537;45.594;9.294;2023-06-22T01:37:20;99943.53;;;24.20;69.55
18819;BME280;9537;45.594;9.294;2023-06-22T01:38:22;99946.50;;;24.18;69.85
18819;BME280;9537;45.594;9.294;2023-06-22T01:39:24;99943.81;;;24.18;70.03
18819;BME280;9537;45.594;9.294;2023-06-22T01:40:25;99944.88;;;24.17;69.96
18819;BME280;9537;45.594;9.294;2023-06-22T01:41:28;99942.72;;;24.19;69.78
18819;BME280;9537;45.594;9.294;2023-06-22T01:42:31;99940.28;;;24.18;70.22
18819;BME280;9537;45.594;9.294;2023-06-22T01:43:33;99942.97;;;24.18;70.22
18819;BME280;9537;45.594;9.294;2023-06-22T01:44:37;99938.09;;;24.15;70.71
18819;BME280;9537;45.594;9.294;2023-06-22T01:45:38;99932.69;;;24.15;70.83
18819;BME280;9537;45.594;9.294;2023-06-22T01:46:41;99938.38;;;24.13;70.76
18819;BME280;9537;45.594;9.294;2023-06-22T01:47:42;99930.84;;;24.15;71.15
18819;BME280;9537;45.594;9.294;2023-06-22T01:48:44;99932.69;;;24.15;71.03
18819;BME280;9537;45.594;9.294;2023-06-22T01:49:45;99934.06;;;24.17;70.86
18819;BME280;9537;45.594;9.294;2023-06-22T01:50:47;99935.16;;;24.16;70.90
18819;BME280;9537;45.594;9.294;2023-06-22T01:51:48;99933.53;;;24.15;70.49
18819;BME280;9537;45.594;9.294;2023-06-22T01:52:50;99942.69;;;24.14;70.60
18819;BME280;9537;45.594;9.294;2023-06-22T01:53:51;99946.47;;;24.13;70.88
18819;BME280;9537;45.594;9.294;2023-06-22T01:54:52;99947.31;;;24.19;70.28
18819;BME280;9537;45.594;9.294;2023-06-22T01:55:53;99949.22;;;24.18;70.34
18819;BME280;9537;45.594;9.294;2023-06-22T01:56:55;99937.56;;;24.18;70.23
18819;BME280;9537;45.594;9.294;2023-06-22T01:57:56;99937.84;;;24.16;70.32
18819;BME280;9537;45.594;9.294;2023-06-22T01:59:05;99949.72;;;24.15;70.46
18819;BME280;9537;45.594;9.294;2023-06-22T02:00:14;99941.88;;;24.14;70.47
18819;BME280;9537;45.594;9.294;2023-06-22T02:01:23;99949.47;;;24.17;70.39
18819;BME280;9537;45.594;9.294;2023-06-22T02:02:27;99946.75;;;24.17;70.43
18819;BME280;9537;45.594;9.294;2023-06-22T02:03:34;99942.69;;;24.14;70.38
18819;BME280;9537;45.594;9.294;2023-06-22T02:04:43;99942.13;;;24.12;70.63
18819;BME280;9537;45.594;9.294;2023-06-22T02:05:50;99942.94;;;24.13;70.92
18819;BME280;9537;45.594;9.294;2023-06-22T02:06:55;99944.00;;;24.12;70.68
18819;BME280;9537;45.594;9.294;2023-06-22T02:08:04;99936.19;;;24.10;70.66
18819;BME280;9537;45.594;9.294;2023-06-22T02:09:09;99940.78;;;24.10;70.85
18819;BME280;9537;45.594;9.294;2023-06-22T02:10:14;99933.19;;;24.07;71.07
18819;BME280;9537;45.594;9.294;2023-06-22T02:11:18;99938.31;;;24.08;70.96
18819;BME280;9537;45.594;9.294;2023-06-22T02:12:22;99937.50;;;24.08;71.26
18819;BME280;9537;45.594;9.294;2023-06-22T02:13:24;99936.41;;;24.09;71.59
18819;BME280;9537;45.594;9.294;2023-06-22T02:14:27;99938.06;;;24.10;71.29
18819;BME280;9537;45.594;9.294;2023-06-22T02:15:29;99922.69;;;24.10;71.56
18819;BME280;9537;45.594;9.294;2023-06-22T02:16:31;99927.00;;;24.11;71.50
18819;BME280;9537;45.594;9.294;2023-06-22T02:17:33;99922.94;;;24.09;71.71
18819;BME280;9537;45.594;9.294;2023-06-22T02:18:35;99923.50;;;24.11;71.78
18819;BME280;9537;45.594;9.294;2023-06-22T02:19:37;99933.47;;;24.10;71.79
18819;BME280;9537;45.594;9.294;2023-06-22T02:20:39;99935.38;;;24.10;71.54
18819;BME280;9537;45.594;9.294;2023-06-22T02:21:40;99932.91;;;24.08;71.99
18819;BME280;9537;45.594;9.294;2023-06-22T02:22:42;99933.19;;;24.07;71.84
18819;BME280;9537;45.594;9.294;2023-06-22T02:23:43;99938.56;;;24.07;72.13
18819;BME280;9537;45.594;9.294;2023-06-22T02:24:45;99926.72;;;24.08;71.84
18819;BME280;9537;45.594;9.294;2023-06-22T02:25:45;99930.50;;;24.07;72.02
18819;BME280;9537;45.594;9.294;2023-06-22T02:26:47;99933.44;;;24.05;71.99
18819;BME280;9537;45.594;9.294;2023-06-22T02:27:48;99928.59;;;24.07;71.76
18819;BME280;9537;45.594;9.294;2023-06-22T02:28:50;99938.81;;;24.05;71.79
18819;BME280;9537;45.594;9.294;2023-06-22T02:29:50;99934.75;;;24.02;71.90
18819;BME280;9537;45.594;9.294;2023-06-22T02:30:53;99935.00;;;24.01;72.19
18819;BME280;9537;45.594;9.294;2023-06-22T02:31:54;99930.44;;;24.01;72.10
18819;BME280;9537;45.594;9.294;2023-06-22T02:32:56;99936.63;;;24.02;71.98
18819;BME280;9537;45.594;9.294;2023-06-22T02:33:59;99930.44;;;24.01;72.00
18819;BME280;9537;45.594;9.294;2023-06-22T02:35:01;99938.53;;;24.01;72.06
18819;BME280;9537;45.594;9.294;2023-06-22T02:36:05;99938.25;;;24.03;72.00
18819;BME280;9537;45.594;9.294;2023-06-22T02:37:09;99928.53;;;24.02;72.13
18819;BME280;9537;45.594;9.294;2023-06-22T02:38:13;99929.06;;;23.99;72.32
18819;BME280;9537;45.594;9.294;2023-06-22T02:39:15;99925.28;;;24.00;71.83
18819;BME280;9537;45.594;9.294;2023-06-22T02:40:15;99926.91;;;24.01;71.96
18819;BME280;9537;45.594;9.294;2023-06-22T02:41:17;99928.28;;;24.03;71.81
18819;BME280;9537;45.594;9.294;2023-06-22T02:42:18;99914.78;;;24.03;72.27
18819;BME280;9537;45.594;9.294;2023-06-22T02:43:22;99925.09;;;24.07;72.15
18819;BME280;9537;45.594;9.294;2023-06-22T02:44:22;99914.03;;;24.08;72.19
18819;BME280;9537;45.594;9.294;2023-06-22T02:45:24;99916.72;;;24.08;72.28
18819;BME280;9537;45.594;9.294;2023-06-22T02:46:26;99911.59;;;24.07;72.15
18819;BME280;9537;45.594;9.294;2023-06-22T02:47:28;99909.94;;;24.05;72.57
18819;BME280;9537;45.594;9.294;2023-06-22T02:48:29;99914.53;;;24.05;72.87
18819;BME280;9537;45.594;9.294;2023-06-22T02:49:30;99915.63;;;24.04;72.82
18819;BME280;9537;45.594;9.294;2023-06-22T02:50:31;99915.06;;;24.02;72.87
18819;BME280;9537;45.594;9.294;2023-06-22T02:51:33;99922.34;;;24.01;72.78
18819;BME280;9537;45.594;9.294;2023-06-22T02:52:34;99919.88;;;24.00;73.16
18819;BME280;9537;45.594;9.294;2023-06-22T02:53:36;99915.06;;;24.02;72.74
18819;BME280;9537;45.594;9.294;2023-06-22T02:54:38;99912.34;;;24.02;72.52
18819;BME280;9537;45.594;9.294;2023-06-22T02:55:38;99916.66;;;24.03;72.91
18819;BME280;9537;45.594;9.294;2023-06-22T02:56:41;99920.97;;;23.99;72.89
18819;BME280;9537;45.594;9.294;2023-06-22T02:57:44;99909.31;;;23.93;73.09
18819;BME280;9537;45.594;9.294;2023-06-22T02:58:46;99912.81;;;23.94;73.23
18819;BME280;9537;45.594;9.294;2023-06-22T02:59:47;99910.91;;;23.94;73.17
18819;BME280;9537;45.594;9.294;2023-06-22T03:00:49;99914.44;;;23.95;73.29
18819;BME280;9537;45.594;9.294;2023-06-22T03:01:54;99919.28;;;23.93;73.24
18819;BME280;9537;45.594;9.294;2023-06-22T03:02:57;99919.28;;;23.93;73.35
18819;BME280;9537;45.594;9.294;2023-06-22T03:03:57;99916.81;;;23.91;73.46
18819;BME280;9537;45.594;9.294;2023-06-22T03:04:59;99921.66;;;23.89;73.22
18819;BME280;9537;45.594;9.294;2023-06-22T03:06:01;99920.03;;;23.88;73.47
18819;BME280;9537;45.594;9.294;2023-06-22T03:07:03;99923.81;;;23.87;73.33
18819;BME280;9537;45.594;9.294;2023-06-22T03:08:04;99932.72;;;23.88;72.94
18819;BME280;9537;45.594;9.294;2023-06-22T03:09:06;99934.91;;;23.91;72.90
18819;BME280;9537;45.594;9.294;2023-06-22T03:10:08;99934.91;;;23.91;72.81
18819;BME280;9537;45.594;9.294;2023-06-22T03:11:10;99931.38;;;23.90;73.08
18819;BME280;9537;45.594;9.294;2023-06-22T03:12:11;99935.41;;;23.88;73.19
18819;BME280;9537;45.594;9.294;2023-06-22T03:13:13;99930.75;;;23.83;73.35
18819;BME280;9537;45.594;9.294;2023-06-22T03:14:13;99933.47;;;23.83;73.57
18819;BME280;9537;45.594;9.294;2023-06-22T03:15:15;99935.34;;;23.82;73.68
18819;BME280;9537;45.594;9.294;2023-06-22T03:16:17;99932.06;;;23.80;74.24
18819;BME280;9537;45.594;9.294;2023-06-22T03:17:19;99929.66;;;23.79;74.27
18819;BME280;9537;45.594;9.294;2023-06-22T03:18:21;99935.84;;;23.79;74.25
18819;BME280;9537;45.594;9.294;2023-06-22T03:19:22;99936.66;;;23.80;74.03
18819;BME280;9537;45.594;9.294;2023-06-22T03:20:24;99942.88;;;23.80;74.09
18819;BME280;9537;45.594;9.294;2023-06-22T03:21:27;99938.84;;;23.83;74.17
18819;BME280;9537;45.594;9.294;2023-06-22T03:22:30;99936.97;;;23.83;74.45
18819;BME280;9537;45.594;9.294;2023-06-22T03:23:30;99935.91;;;23.85;74.51
18819;BME280;9537;45.594;9.294;2023-06-22T03:24:32;99930.25;;;23.86;74.46
18819;BME280;9537;45.594;9.294;2023-06-22T03:25:35;99930.25;;;23.86;74.20
18819;BME280;9537;45.594;9.294;2023-06-22T03:26:37;99927.03;;;23.89;74.28
18819;BME280;9537;45.594;9.294;2023-06-22T03:27:38;99921.91;;;23.88;73.88
18819;BME280;9537;45.594;9.294;2023-06-22T03:28:39;99918.16;;;23.89;74.07
18819;BME280;9537;45.594;9.294;2023-06-22T03:29:40;99919.78;;;23.90;73.98
18819;BME280;9537;45.594;9.294;2023-06-22T03:30:42;99921.41;;;23.91;73.92
18819;BME280;9537;45.594;9.294;2023-06-22T03:31:42;99915.44;;;23.89;73.84
18819;BME280;9537;45.594;9.294;2023-06-22T03:32:46;99913.31;;;23.91;73.61
18819;BME280;9537;45.594;9.294;2023-06-22T03:33:47;99915.44;;;23.89;73.69
18819;BME280;9537;45.594;9.294;2023-06-22T03:34:49;99918.16;;;23.89;73.76
18819;BME280;9537;45.594;9.294;2023-06-22T03:35:50;99919.78;;;23.90;73.74
18819;BME280;9537;45.594;9.294;2023-06-22T03:36:52;99920.84;;;23.89;74.03
18819;BME280;9537;45.594;9.294;2023-06-22T03:37:55;99916.53;;;23.88;73.99
18819;BME280;9537;45.594;9.294;2023-06-22T03:38:55;99911.13;;;23.88;74.34
18819;BME280;9537;45.594;9.294;2023-06-22T03:39:57;99919.78;;;23.90;74.37
18819;BME280;9537;45.594;9.294;2023-06-22T03:40:58;99919.22;;;23.88;74.46
18819;BME280;9537;45.594;9.294;2023-06-22T03:42:00;99917.03;;;23.85;74.45
18819;BME280;9537;45.594;9.294;2023-06-22T03:43:00;99919.97;;;23.83;74.75
18819;BME280;9537;45.594;9.294;2023-06-22T03:44:02;99920.78;;;23.83;75.02
18819;BME280;9537;45.594;9.294;2023-06-22T03:45:04;99927.00;;;23.84;74.97
18819;BME280;9537;45.594;9.294;2023-06-22T03:46:06;99922.44;;;23.85;75.20
18819;BME280;9537;45.594;9.294;2023-06-22T03:47:08;99922.66;;;23.83;75.30
18819;BME280;9537;45.594;9.294;2023-06-22T03:48:11;99919.44;;;23.81;75.23
18819;BME280;9537;45.594;9.294;2023-06-22T03:49:12;99922.13;;;23.81;75.39
18819;BME280;9537;45.594;9.294;2023-06-22T03:50:13;99915.09;;;23.80;75.40
18819;BME280;9537;45.594;9.294;2023-06-22T03:51:15;99923.19;;;23.80;75.20
18819;BME280;9537;45.594;9.294;2023-06-22T03:52:16;99920.47;;;23.80;75.58
18819;BME280;9537;45.594;9.294;2023-06-22T03:53:17;99928.34;;;23.81;75.39
18819;BME280;9537;45.594;9.294;2023-06-22T03:54:18;99925.34;;;23.78;75.21
18819;BME280;9537;45.594;9.294;2023-06-22T03:55:20;99926.38;;;23.77;75.15
18819;BME280;9537;45.594;9.294;2023-06-22T03:56:22;99933.91;;;23.75;75.61
18819;BME280;9537;45.594;9.294;2023-06-22T03:57:22;99933.59;;;23.71;75.62
18819;BME280;9537;45.594;9.294;2023-06-22T03:58:24;99931.97;;;23.70;75.97
18819;BME280;9537;45.594;9.294;2023-06-22T03:59:25;99925.50;;;23.71;75.56
18819;BME280;9537;45.594;9.294;2023-06-22T04:00:27;99931.16;;;23.70;75.94
18819;BME280;9537;45.594;9.294;2023-06-22T04:01:27;99928.44;;;23.70;75.92
18819;BME280;9537;45.594;9.294;2023-06-22T04:02:29;99924.09;;;23.69;76.11
18819;BME280;9537;45.594;9.294;2023-06-22T04:03:31;99935.16;;;23.67;76.22
18819;BME280;9537;45.594;9.294;2023-06-22T04:04:33;99931.38;;;23.68;76.17
18819;BME280;9537;45.594;9.294;2023-06-22T04:05:35;99937.84;;;23.67;76.19
18819;BME280;9537;45.594;9.294;2023-06-22T04:06:37;99941.34;;;23.68;76.23
18819;BME280;9537;45.594;9.294;2023-06-22T04:07:37;99941.09;;;23.69;76.27
18819;BME280;9537;45.594;9.294;2023-06-22T04:08:39;99946.28;;;23.71;76.09
18819;BME280;9537;45.594;9.294;2023-06-22T04:09:41;99948.16;;;23.70;76.20
18819;BME280;9537;45.594;9.294;2023-06-22T04:10:43;99946.47;;;23.69;76.54
18819;BME280;9537;45.594;9.294;2023-06-22T04:11:43;99934.41;;;23.72;76.46
18819;BME280;9537;45.594;9.294;2023-06-22T04:12:45;99940.38;;;23.74;76.48
18819;BME280;9537;45.594;9.294;2023-06-22T04:13:46;99929.03;;;23.72;76.59
18819;BME280;9537;45.594;9.294;2023-06-22T04:14:49;99928.44;;;23.70;76.94
18819;BME280;9537;45.594;9.294;2023-06-22T04:15:49;99922.22;;;23.69;76.97
18819;BME280;9537;45.594;9.294;2023-06-22T04:16:51;99924.91;;;23.69;76.75
18819;BME280;9537;45.594;9.294;2023-06-22T04:17:52;99926.59;;;23.70;76.55
18819;BME280;9537;45.594;9.294;2023-06-22T04:18:55;99917.44;;;23.71;76.73
18819;BME280;9537;45.594;9.294;2023-06-22T04:19:56;99924.47;;;23.72;76.33
18819;BME280;9537;45.594;9.294;2023-06-22T04:20:58;99921.78;;;23.72;76.17
18819;BME280;9537;45.594;9.294;2023-06-22T04:21:59;99916.91;;;23.74;76.23
18819;BME280;9537;45.594;9.294;2023-06-22T04:23:01;99913.72;;;23.77;76.36
18819;BME280;9537;45.594;9.294;2023-06-22T04:24:01;99913.47;;;23.79;75.97
18819;BME280;9537;45.594;9.294;2023-06-22T04:25:05;99916.47;;;23.82;75.95
18819;BME280;9537;45.594;9.294;2023-06-22T04:26:07;99919.97;;;23.83;76.26
18819;BME280;9537;45.594;9.294;2023-06-22T04:27:09;99908.94;;;23.85;76.32
18819;BME280;9537;45.594;9.294;2023-06-22T04:28:10;99907.06;;;23.85;76.14
18819;BME280;9537;45.594;9.294;2023-06-22T04:29:13;99914.56;;;23.83;76.21
18819;BME280;9537;45.594;9.294;2023-06-22T04:30:14;99913.78;;;23.82;76.16
18819;BME280;9537;45.594;9.294;2023-06-22T04:31:17;99911.59;;;23.79;76.06
18819;BME280;9537;45.594;9.294;2023-06-22T04:32:18;99912.16;;;23.81;76.12
18819;BME280;9537;45.594;9.294;2023-06-22T04:33:20;99906.75;;;23.81;76.17
18819;BME280;9537;45.594;9.294;2023-06-22T04:34:22;99917.53;;;23.81;76.44
18819;BME280;9537;45.594;9.294;2023-06-22T04:35:26;99909.44;;;23.81;76.19
18819;BME280;9537;45.594;9.294;2023-06-22T04:36:28;99902.41;;;23.80;76.49
18819;BME280;9537;45.594;9.294;2023-06-22T04:37:31;99904.59;;;23.83;76.81
18819;BME280;9537;45.594;9.294;2023-06-22T04:38:33;99907.28;;;23.83;76.84
18819;BME280;9537;45.594;9.294;2023-06-22T04:39:33;99910.00;;;23.83;77.00
18819;BME280;9537;45.594;9.294;2023-06-22T04:40:36;99906.75;;;23.81;77.53
18819;BME280;9537;45.594;9.294;2023-06-22T04:41:37;99911.00;;;23.77;77.63
18819;BME280;9537;45.594;9.294;2023-06-22T04:42:43;99911.84;;;23.78;77.47
18819;BME280;9537;45.594;9.294;2023-06-22T04:43:53;99910.19;;;23.77;78.09
18819;BME280;9537;45.594;9.294;2023-06-22T04:45:00;99913.97;;;23.76;78.05
18819;BME280;9537;45.594;9.294;2023-06-22T04:46:01;99913.16;;;23.75;78.20
18819;BME280;9537;45.594;9.294;2023-06-22T04:47:04;99919.63;;;23.74;78.29
18819;BME280;9537;45.594;9.294;2023-06-22T04:48:07;99920.69;;;23.73;77.95
18819;BME280;9537;45.594;9.294;2023-06-22T04:49:09;99925.50;;;23.71;77.91
18819;BME280;9537;45.594;9.294;2023-06-22T04:50:13;99919.06;;;23.72;77.59
18819;BME280;9537;45.594;9.294;2023-06-22T04:51:15;99922.56;;;23.73;77.34
18819;BME280;9537;45.594;9.294;2023-06-22T04:52:16;99916.09;;;23.74;77.67
18819;BME280;9537;45.594;9.294;2023-06-22T04:53:18;99909.63;;;23.75;77.64
18819;BME280;9537;45.594;9.294;2023-06-22T04:54:20;99910.19;;;23.77;77.53
18819;BME280;9537;45.594;9.294;2023-06-22T04:55:20;99911.00;;;23.77;77.22
18819;BME280;9537;45.594;9.294;2023-06-22T04:56:22;99913.47;;;23.79;77.03
18819;BME280;9537;45.594;9.294;2023-06-22T04:57:28;99914.84;;;23.81;76.25
18819;BME280;9537;45.594;9.294;2023-06-22T04:58:32;99921.06;;;23.82;75.42
18819;BME280;9537;45.594;9.294;2023-06-22T04:59:33;99921.63;;;23.84;75.27
18819;BME280;9537;45.594;9.294;2023-06-22T05:00:35;99923.00;;;23.87;74.86
18819;BME280;9537;45.594;9.294;2023-06-22T05:01:37;99923.00;;;23.87;74.98
18819;BME280;9537;45.594;9.294;2023-06-22T05:02:38;99921.91;;;23.88;75.09
18819;BME280;9537;45.594;9.294;2023-06-22T05:03:40;99908.44;;;23.88;75.67
18819;BME280;9537;45.594;9.294;2023-06-22T05:04:43;99904.41;;;23.90;76.15
18819;BME280;9537;45.594;9.294;2023-06-22T05:05:46;99905.78;;;23.93;76.33
18819;BME280;9537;45.594;9.294;2023-06-22T05:06:48;99906.03;;;23.91;76.16
18819;BME280;9537;45.594;9.294;2023-06-22T05:07:51;99909.00;;;23.90;76.74
18819;BME280;9537;45.594;9.294;2023-06-22T05:08:56;99893.63;;;23.90;76.56
18819;BME280;9537;45.594;9.294;2023-06-22T05:09:57;99894.44;;;23.91;76.64
18819;BME280;9537;45.594;9.294;2023-06-22T05:10:59;99888.53;;;23.94;76.47
18819;BME280;9537;45.594;9.294;2023-06-22T05:12:02;99884.75;;;23.95;76.30
18819;BME280;9537;45.594;9.294;2023-06-22T05:13:03;99883.94;;;23.94;76.32
18819;BME280;9537;45.594;9.294;2023-06-22T05:14:04;99894.50;;;23.96;76.66
18819;BME280;9537;45.594;9.294;2023-06-22T05:15:07;99899.63;;;23.97;77.26
18819;BME280;9537;45.594;9.294;2023-06-22T05:16:09;99903.97;;;23.98;77.52
18819;BME280;9537;45.594;9.294;2023-06-22T05:17:10;99905.81;;;23.98;77.67
18819;BME280;9537;45.594;9.294;2023-06-22T05:18:14;99917.44;;;23.98;76.69
18819;BME280;9537;45.594;9.294;2023-06-22T05:19:15;99917.97;;;23.95;77.02
18819;BME280;9537;45.594;9.294;2023-06-22T05:20:17;99917.13;;;23.95;77.88
18819;BME280;9537;45.594;9.294;2023-06-22T05:21:22;99915.50;;;23.94;77.89
18819;BME280;9537;45.594;9.294;2023-06-22T05:22:24;99914.69;;;23.93;78.95
18819;BME280;9537;45.594;9.294;2023-06-22T05:23:25;99903.63;;;23.95;79.13
18819;BME280;9537;45.594;9.294;2023-06-22T05:24:27;99892.84;;;23.95;79.70
18819;BME280;9537;45.594;9.294;2023-06-22T05:25:27;99888.03;;;23.97;79.71
18819;BME280;9537;45.594;9.294;2023-06-22T05:26:31;99888.03;;;23.97;79.96
18819;BME280;9537;45.594;9.294;2023-06-22T05:27:32;99902.59;;;23.96;79.90
18819;BME280;9537;45.594;9.294;2023-06-22T05:28:33;99905.00;;;23.97;79.77
18819;BME280;9537;45.594;9.294;2023-06-22T05:29:35;99913.38;;;23.96;79.29
18819;BME280;9537;45.594;9.294;2023-06-22T05:30:36;99916.06;;;23.96;79.05
18819;BME280;9537;45.594;9.294;2023-06-22T05:31:38;99905.28;;;23.96;78.74
18819;BME280;9537;45.594;9.294;2023-06-22T05:32:40;99912.28;;;23.97;79.49
18819;BME280;9537;45.594;9.294;2023-06-22T05:33:43;99912.88;;;23.99;79.83
18819;BME280;9537;45.594;9.294;2023-06-22T05:34:44;99925.84;;;24.02;79.86
18819;BME280;9537;45.594;9.294;2023-06-22T05:35:46;99938.53;;;24.01;79.78